KSLE/SLE METAR and TAF weather

Enter ICAO airport designator
Station Type Date Time Source
KSLE METAR 2022/01/29 00:56 UTC NOAA

KSLE 290056Z 06003KT 10SM CLR 08/M01 A3028 RMK AO2 SLP255 T00781011


Station Type Date Time Source
KSLE Decoded METAR 2022/01/29 00:56 UTC NOAA

SALEM MCNARY FIELD, OR, United States (KSLE) 44-54N 123-00W 59M
Jan 28, 2022 - 07:56 PM EST / 2022.01.29 0056 UTC
Wind: from the ENE (060 degrees) at 3 MPH (3 KT):0
Visibility: 10 mile(s):0
Sky conditions: clear
Temperature: 46.0 F (7.8 C)
Dew Point: 30.0 F (-1.1 C)
Relative Humidity: 53%
Pressure (altimeter): 30.28 in. Hg (1025 hPa)
ob: KSLE 290056Z 06003KT 10SM CLR 08/M01 A3028 RMK AO2 SLP255 T00781011
cycle: 1

Station Type Date Time Source
KSLE TAF 2022/01/28 18:39 UTC NOAA

TAF KSLE 281736Z 2818/2918 36006KT P6SM SKC

Example: see airport list